sensor_id;sensor_type;location;lat;lon;timestamp;pressure;altitude;pressure_sealevel;temperature;humidity
72157;BME280;60035;52.122;5.406;2023-05-10T00:00:08;101008.59;;;12.97;100.00
72157;BME280;60035;52.122;5.406;2023-05-10T00:02:35;101012.88;;;12.96;100.00
72157;BME280;60035;52.122;5.406;2023-05-10T00:05:02;101016.38;;;12.95;100.00
72157;BME280;60035;52.122;5.406;2023-05-10T00:07:28;101014.63;;;12.96;100.00
72157;BME280;60035;52.122;5.406;2023-05-10T00:09:55;101010.31;;;12.96;100.00
72157;BME280;60035;52.122;5.406;2023-05-10T00:12:21;101011.16;;;12.97;100.00
72157;BME280;60035;52.122;5.406;2023-05-10T00:14:48;101008.66;;;12.95;100.00
72157;BME280;60035;52.122;5.406;2023-05-10T00:17:14;101008.72;;;12.94;100.00
72157;BME280;60035;52.122;5.406;2023-05-10T00:19:41;100999.28;;;12.94;100.00
72157;BME280;60035;52.122;5.406;2023-05-10T00:22:07;101003.59;;;12.94;100.00
72157;BME280;60035;52.122;5.406;2023-05-10T00:24:34;101003.69;;;12.91;100.00
72157;BME280;60035;52.122;5.406;2023-05-10T00:27:00;101004.47;;;12.93;100.00
72157;BME280;60035;52.122;5.406;2023-05-10T00:29:27;101001.03;;;12.92;100.00
72157;BME280;60035;52.122;5.406;2023-05-10T00:31:54;101001.91;;;12.93;100.00
72157;BME280;60035;52.122;5.406;2023-05-10T00:34:21;101001.00;;;12.94;100.00
72157;BME280;60035;52.122;5.406;2023-05-10T00:36:47;101005.22;;;12.95;100.00
72157;BME280;60035;52.122;5.406;2023-05-10T00:39:14;100995.75;;;12.97;100.00
72157;BME280;60035;52.122;5.406;2023-05-10T00:41:40;100999.19;;;12.96;100.00
72157;BME280;60035;52.122;5.406;2023-05-10T00:44:07;100996.56;;;12.97;100.00
72157;BME280;60035;52.122;5.406;2023-05-10T00:46:33;101010.31;;;12.96;100.00
72157;BME280;60035;52.122;5.406;2023-05-10T00:49:00;100999.38;;;12.91;100.00
72157;BME280;60035;52.122;5.406;2023-05-10T00:51:27;100992.63;;;12.89;100.00
72157;BME280;60035;52.122;5.406;2023-05-10T00:53:54;101001.22;;;12.88;100.00
72157;BME280;60035;52.122;5.406;2023-05-10T00:56:22;100998.72;;;12.86;100.00
72157;BME280;60035;52.122;5.406;2023-05-10T00:58:50;100999.53;;;12.87;100.00
72157;BME280;60035;52.122;5.406;2023-05-10T01:01:17;101002.91;;;12.89;100.00
72157;BME280;60035;52.122;5.406;2023-05-10T01:03:43;101005.50;;;12.87;100.00
72157;BME280;60035;52.122;5.406;2023-05-10T01:06:10;101006.50;;;12.85;100.00
72157;BME280;60035;52.122;5.406;2023-05-10T01:08:37;101003.94;;;12.83;100.00
72157;BME280;60035;52.122;5.406;2023-05-10T01:11:04;101002.22;;;12.83;100.00
72157;BME280;60035;52.122;5.406;2023-05-10T01:13:33;101009.94;;;12.83;100.00
72157;BME280;60035;52.122;5.406;2023-05-10T01:16:02;101007.59;;;12.77;100.00
72157;BME280;60035;52.122;5.406;2023-05-10T01:18:30;101005.91;;;12.76;100.00
72157;BME280;60035;52.122;5.406;2023-05-10T01:21:07;101006.78;;;12.75;100.00
72157;BME280;60035;52.122;5.406;2023-05-10T01:32:55;101000.63;;;12.81;100.00
72157;BME280;60035;52.122;5.406;2023-05-10T01:40:56;101007.44;;;12.82;100.00
72157;BME280;60035;52.122;5.406;2023-05-10T01:43:34;101009.06;;;12.85;100.00
72157;BME280;60035;52.122;5.406;2023-05-10T01:46:09;101006.44;;;12.86;100.00
72157;BME280;60035;52.122;5.406;2023-05-10T01:48:46;101015.84;;;12.86;100.00
72157;BME280;60035;52.122;5.406;2023-05-10T01:51:21;101007.31;;;12.85;100.00
72157;BME280;60035;52.122;5.406;2023-05-10T01:53:49;101010.72;;;12.86;100.00
72157;BME280;60035;52.122;5.406;2023-05-10T01:56:19;101009.16;;;12.81;100.00
72157;BME280;60035;52.122;5.406;2023-05-10T01:58:51;101006.50;;;12.85;100.00
72157;BME280;60035;52.122;5.406;2023-05-10T02:01:20;101004.00;;;12.81;100.00
72157;BME280;60035;52.122;5.406;2023-05-10T02:03:50;101006.53;;;12.83;100.00
72157;BME280;60035;52.122;5.406;2023-05-10T02:06:20;101006.53;;;12.83;100.00
72157;BME280;60035;52.122;5.406;2023-05-10T02:08:49;101010.84;;;12.82;100.00
72157;BME280;60035;52.122;5.406;2023-05-10T02:11:17;101009.16;;;12.81;100.00
72157;BME280;60035;52.122;5.406;2023-05-10T02:13:45;101010.97;;;12.78;100.00
72157;BME280;60035;52.122;5.406;2023-05-10T02:16:14;101017.81;;;12.79;100.00
72157;BME280;60035;52.122;5.406;2023-05-10T02:18:42;101006.59;;;12.81;100.00
72157;BME280;60035;52.122;5.406;2023-05-10T02:21:10;101015.25;;;12.79;100.00
72157;BME280;60035;52.122;5.406;2023-05-10T02:23:37;101023.84;;;12.78;100.00
72157;BME280;60035;52.122;5.406;2023-05-10T02:26:05;101014.41;;;12.78;100.00
72157;BME280;60035;52.122;5.406;2023-05-10T02:28:33;101023.81;;;12.79;100.00
72157;BME280;60035;52.122;5.406;2023-05-10T02:31:02;101023.94;;;12.75;100.00
72157;BME280;60035;52.122;5.406;2023-05-10T02:33:29;101024.13;;;12.70;100.00
72157;BME280;60035;52.122;5.406;2023-05-10T02:35:58;101025.91;;;12.68;100.00
72157;BME280;60035;52.122;5.406;2023-05-10T02:38:25;101027.66;;;12.68;100.00
72157;BME280;60035;52.122;5.406;2023-05-10T02:40:53;101029.28;;;12.70;100.00
72157;BME280;60035;52.122;5.406;2023-05-10T02:43:21;101036.25;;;12.66;100.00
72157;BME280;60035;52.122;5.406;2023-05-10T02:45:49;101043.22;;;12.63;100.00
72157;BME280;60035;52.122;5.406;2023-05-10T02:48:16;101044.16;;;12.60;100.00
72157;BME280;60035;52.122;5.406;2023-05-10T02:50:44;101040.63;;;12.63;100.00
72157;BME280;60035;52.122;5.406;2023-05-10T02:53:15;101044.00;;;12.65;100.00
72157;BME280;60035;52.122;5.406;2023-05-10T02:55:44;101042.63;;;12.55;100.00
72157;BME280;60035;52.122;5.406;2023-05-10T02:58:15;101045.41;;;12.48;100.00
72157;BME280;60035;52.122;5.406;2023-05-10T03:00:41;101042.22;;;12.42;100.00
72157;BME280;60035;52.122;5.406;2023-05-10T03:03:08;101049.22;;;12.37;100.00
72157;BME280;60035;52.122;5.406;2023-05-10T03:05:34;101049.22;;;12.37;100.00
72157;BME280;60035;52.122;5.406;2023-05-10T03:08:01;101053.75;;;12.30;100.00
72157;BME280;60035;52.122;5.406;2023-05-10T03:10:31;101049.75;;;12.21;100.00
72157;BME280;60035;52.122;5.406;2023-05-10T03:13:12;101047.16;;;12.23;100.00
72157;BME280;60035;52.122;5.406;2023-05-10T03:15:54;101048.84;;;12.22;100.00
72157;BME280;60035;52.122;5.406;2023-05-10T03:18:28;101049.78;;;12.20;100.00
72157;BME280;60035;52.122;5.406;2023-05-10T03:20:59;101058.25;;;12.23;100.00
72157;BME280;60035;52.122;5.406;2023-05-10T03:23:35;101055.84;;;12.19;100.00
72157;BME280;60035;52.122;5.406;2023-05-10T03:26:02;101059.19;;;12.21;100.00
72157;BME280;60035;52.122;5.406;2023-05-10T03:28:29;101057.59;;;12.16;100.00
72157;BME280;60035;52.122;5.406;2023-05-10T03:30:57;101061.06;;;12.15;100.00
72157;BME280;60035;52.122;5.406;2023-05-10T03:33:25;101066.09;;;12.19;100.00
72157;BME280;60035;52.122;5.406;2023-05-10T03:35:51;101066.94;;;12.19;100.00
72157;BME280;60035;52.122;5.406;2023-05-10T03:38:18;101065.25;;;12.18;100.00
72157;BME280;60035;52.122;5.406;2023-05-10T03:40:44;101063.56;;;12.17;100.00
72157;BME280;60035;52.122;5.406;2023-05-10T03:43:11;101056.72;;;12.18;100.00
72157;BME280;60035;52.122;5.406;2023-05-10T03:45:37;101056.66;;;12.19;100.00
72157;BME280;60035;52.122;5.406;2023-05-10T03:48:04;101053.03;;;12.25;100.00
72157;BME280;60035;52.122;5.406;2023-05-10T03:50:31;101057.28;;;12.26;100.00
72157;BME280;60035;52.122;5.406;2023-05-10T03:52:57;101056.34;;;12.28;100.00
72157;BME280;60035;52.122;5.406;2023-05-10T03:55:24;101064.88;;;12.29;100.00
72157;BME280;60035;52.122;5.406;2023-05-10T03:57:50;101064.19;;;12.25;100.00
72157;BME280;60035;52.122;5.406;2023-05-10T04:00:17;101054.72;;;12.26;100.00
72157;BME280;60035;52.122;5.406;2023-05-10T04:02:44;101062.44;;;12.26;100.00
72157;BME280;60035;52.122;5.406;2023-05-10T04:05:11;101059.75;;;12.29;100.00
72157;BME280;60035;52.122;5.406;2023-05-10T04:07:38;101064.81;;;12.32;100.00
72157;BME280;60035;52.122;5.406;2023-05-10T04:10:05;101063.13;;;12.31;100.00
72157;BME280;60035;52.122;5.406;2023-05-10T04:12:32;101069.84;;;12.35;100.00
72157;BME280;60035;52.122;5.406;2023-05-10T04:14:59;101068.31;;;12.29;100.00
72157;BME280;60035;52.122;5.406;2023-05-10T04:17:25;101064.00;;;12.30;100.00
72157;BME280;60035;52.122;5.406;2023-05-10T04:19:52;101069.25;;;12.27;100.00
72157;BME280;60035;52.122;5.406;2023-05-10T04:22:20;101071.75;;;12.28;100.00
72157;BME280;60035;52.122;5.406;2023-05-10T04:24:47;101069.16;;;12.30;100.00
72157;BME280;60035;52.122;5.406;2023-05-10T04:27:13;101070.88;;;12.29;100.00
72157;BME280;60035;52.122;5.406;2023-05-10T04:29:40;101070.94;;;12.28;100.00
72157;BME280;60035;52.122;5.406;2023-05-10T04:32:07;101066.53;;;12.31;100.00
72157;BME280;60035;52.122;5.406;2023-05-10T04:34:34;101070.03;;;12.29;100.00
72157;BME280;60035;52.122;5.406;2023-05-10T04:37:00;101069.16;;;12.30;100.00
72157;BME280;60035;52.122;5.406;2023-05-10T04:39:27;101065.69;;;12.31;100.00
72157;BME280;60035;52.122;5.406;2023-05-10T04:41:53;101067.38;;;12.32;100.00
72157;BME280;60035;52.122;5.406;2023-05-10T04:44:20;101060.38;;;12.36;100.00
72157;BME280;60035;52.122;5.406;2023-05-10T04:46:46;101071.63;;;12.33;100.00
72157;BME280;60035;52.122;5.406;2023-05-10T04:49:13;101070.00;;;12.30;100.00
72157;BME280;60035;52.122;5.406;2023-05-10T04:51:40;101081.84;;;12.35;100.00
72157;BME280;60035;52.122;5.406;2023-05-10T04:54:06;101075.91;;;12.32;100.00
72157;BME280;60035;52.122;5.406;2023-05-10T04:56:33;101087.03;;;12.33;100.00
72157;BME280;60035;52.122;5.406;2023-05-10T04:59:00;101089.50;;;12.36;100.00
72157;BME280;60035;52.122;5.406;2023-05-10T05:01:26;101090.31;;;12.37;100.00
72157;BME280;60035;52.122;5.406;2023-05-10T05:03:53;101082.47;;;12.41;100.00
72157;BME280;60035;52.122;5.406;2023-05-10T05:06:20;101086.69;;;12.44;100.00
72157;BME280;60035;52.122;5.406;2023-05-10T05:08:51;101090.13;;;12.43;100.00
72157;BME280;60035;52.122;5.406;2023-05-10T05:11:17;101091.63;;;12.48;100.00
72157;BME280;60035;52.122;5.406;2023-05-10T05:13:44;101098.47;;;12.49;100.00
72157;BME280;60035;52.122;5.406;2023-05-10T05:16:10;101095.00;;;12.50;100.00
72157;BME280;60035;52.122;5.406;2023-05-10T05:18:38;101102.66;;;12.52;100.00
72157;BME280;60035;52.122;5.406;2023-05-10T05:21:14;101099.03;;;12.58;100.00
72157;BME280;60035;52.122;5.406;2023-05-10T05:23:41;101107.59;;;12.58;100.00
72157;BME280;60035;52.122;5.406;2023-05-10T05:26:07;101106.69;;;12.59;100.00
72157;BME280;60035;52.122;5.406;2023-05-10T05:28:34;101111.00;;;12.59;100.00
72157;BME280;60035;52.122;5.406;2023-05-10T05:31:04;101107.53;;;12.60;100.00
72157;BME280;60035;52.122;5.406;2023-05-10T05:33:31;101108.22;;;12.65;100.00
72157;BME280;60035;52.122;5.406;2023-05-10T05:36:00;101114.25;;;12.64;100.00
72157;BME280;60035;52.122;5.406;2023-05-10T05:38:26;101120.38;;;12.60;100.00
72157;BME280;60035;52.122;5.406;2023-05-10T05:40:53;101115.13;;;12.63;100.00
72157;BME280;60035;52.122;5.406;2023-05-10T05:43:19;101116.81;;;12.64;100.00
72157;BME280;60035;52.122;5.406;2023-05-10T05:45:46;101117.59;;;12.66;100.00
72157;BME280;60035;52.122;5.406;2023-05-10T05:48:12;101124.34;;;12.70;100.00
72157;BME280;60035;52.122;5.406;2023-05-10T05:50:38;101120.03;;;12.71;100.00
72157;BME280;60035;52.122;5.406;2023-05-10T05:53:05;101130.31;;;12.71;100.00
72157;BME280;60035;52.122;5.406;2023-05-10T05:55:31;101126.91;;;12.70;100.00
72157;BME280;60035;52.122;5.406;2023-05-10T05:57:58;101130.41;;;12.68;100.00
72157;BME280;60035;52.122;5.406;2023-05-10T06:00:24;101138.13;;;12.68;100.00
72157;BME280;60035;52.122;5.406;2023-05-10T06:02:51;101141.53;;;12.68;100.00
72157;BME280;60035;52.122;5.406;2023-05-10T06:05:18;101140.69;;;12.68;100.00
72157;BME280;60035;52.122;5.406;2023-05-10T06:07:46;101141.69;;;12.63;100.00
72157;BME280;60035;52.122;5.406;2023-05-10T06:10:12;101148.53;;;12.63;100.00
72157;BME280;60035;52.122;5.406;2023-05-10T06:12:39;101145.19;;;12.61;100.00
72157;BME280;60035;52.122;5.406;2023-05-10T06:15:06;101147.75;;;12.61;100.00
72157;BME280;60035;52.122;5.406;2023-05-10T06:17:32;101152.28;;;12.53;100.00
72157;BME280;60035;52.122;5.406;2023-05-10T06:19:59;101151.66;;;12.46;100.00
72157;BME280;60035;52.122;5.406;2023-05-10T06:22:25;101157.66;;;12.46;100.00
72157;BME280;60035;52.122;5.406;2023-05-10T06:24:52;101166.13;;;12.48;100.00
72157;BME280;60035;52.122;5.406;2023-05-10T06:27:18;101167.06;;;12.46;100.00
72157;BME280;60035;52.122;5.406;2023-05-10T06:29:45;101162.69;;;12.49;100.00
72157;BME280;60035;52.122;5.406;2023-05-10T06:32:11;101151.56;;;12.49;100.00
72157;BME280;60035;52.122;5.406;2023-05-10T06:34:38;101157.41;;;12.54;100.00
72157;BME280;60035;52.122;5.406;2023-05-10T06:37:04;101163.13;;;12.62;100.00
72157;BME280;60035;52.122;5.406;2023-05-10T06:39:31;101160.34;;;12.69;100.00
72157;BME280;60035;52.122;5.406;2023-05-10T06:41:57;101165.63;;;12.64;100.00
72157;BME280;60035;52.122;5.406;2023-05-10T06:44:23;101163.84;;;12.66;100.00
72157;BME280;60035;52.122;5.406;2023-05-10T06:46:50;101163.06;;;12.64;100.00
72157;BME280;60035;52.122;5.406;2023-05-10T06:49:18;101162.91;;;12.69;100.00
72157;BME280;60035;52.122;5.406;2023-05-10T06:51:45;101167.03;;;12.74;100.00
72157;BME280;60035;52.122;5.406;2023-05-10T06:54:11;101173.03;;;12.73;100.00
72157;BME280;60035;52.122;5.406;2023-05-10T06:56:38;101174.81;;;12.71;100.00
72157;BME280;60035;52.122;5.406;2023-05-10T06:59:04;101177.34;;;12.73;100.00
72157;BME280;60035;52.122;5.406;2023-05-10T07:01:31;101184.88;;;12.77;100.00
72157;BME280;60035;52.122;5.406;2023-05-10T07:03:57;101179.56;;;12.83;100.00
72157;BME280;60035;52.122;5.406;2023-05-10T07:06:24;101181.25;;;12.85;100.00
72157;BME280;60035;52.122;5.406;2023-05-10T07:08:59;101190.59;;;12.86;100.00
72157;BME280;60035;52.122;5.406;2023-05-10T07:11:26;101189.66;;;12.88;100.00
72157;BME280;60035;52.122;5.406;2023-05-10T07:13:53;101188.72;;;12.91;100.00
72157;BME280;60035;52.122;5.406;2023-05-10T07:16:19;101195.34;;;12.98;100.00
72157;BME280;60035;52.122;5.406;2023-05-10T07:18:46;101191.03;;;12.98;100.00
72157;BME280;60035;52.122;5.406;2023-05-10T07:21:12;101191.94;;;12.97;100.00
72157;BME280;60035;52.122;5.406;2023-05-10T07:23:39;101198.88;;;12.95;100.00
72157;BME280;60035;52.122;5.406;2023-05-10T07:26:07;101197.28;;;12.91;100.00
72157;BME280;60035;52.122;5.406;2023-05-10T07:28:33;101197.44;;;12.87;100.00
72157;BME280;60035;52.122;5.406;2023-05-10T07:31:02;101210.22;;;12.88;100.00
72157;BME280;60035;52.122;5.406;2023-05-10T07:33:29;101209.22;;;12.94;100.00
72157;BME280;60035;52.122;5.406;2023-05-10T07:35:56;101212.50;;;12.97;100.00
72157;BME280;60035;52.122;5.406;2023-05-10T07:38:22;101212.19;;;13.07;100.00
72157;BME280;60035;52.122;5.406;2023-05-10T07:40:49;101216.50;;;13.06;100.00
72157;BME280;60035;52.122;5.406;2023-05-10T07:43:15;101218.88;;;13.12;100.00
72157;BME280;60035;52.122;5.406;2023-05-10T07:45:42;101224.63;;;13.19;100.00
72157;BME280;60035;52.122;5.406;2023-05-10T07:48:09;101218.16;;;13.32;100.00
72157;BME280;60035;52.122;5.406;2023-05-10T07:50:36;101220.44;;;13.42;100.00
72157;BME280;60035;52.122;5.406;2023-05-10T07:53:02;101226.31;;;13.45;100.00
72157;BME280;60035;52.122;5.406;2023-05-10T07:55:29;101226.97;;;13.50;100.00
72157;BME280;60035;52.122;5.406;2023-05-10T07:57:56;101230.34;;;13.53;100.00
72157;BME280;60035;52.122;5.406;2023-05-10T08:00:22;101229.34;;;13.57;100.00
72157;BME280;60035;52.122;5.406;2023-05-10T08:02:49;101232.94;;;13.53;100.00
72157;BME280;60035;52.122;5.406;2023-05-10T08:05:15;101235.78;;;13.45;100.00
72157;BME280;60035;52.122;5.406;2023-05-10T08:07:42;101235.03;;;13.41;100.00
72157;BME280;60035;52.122;5.406;2023-05-10T08:10:09;101247.06;;;13.41;100.00
72157;BME280;60035;52.122;5.406;2023-05-10T08:12:37;101247.94;;;13.40;100.00
72157;BME280;60035;52.122;5.406;2023-05-10T08:15:05;101242.88;;;13.38;100.00
72157;BME280;60035;52.122;5.406;2023-05-10T08:17:31;101247.88;;;13.41;100.00
72157;BME280;60035;52.122;5.406;2023-05-10T08:19:58;101246.25;;;13.39;100.00
72157;BME280;60035;52.122;5.406;2023-05-10T08:22:25;101252.25;;;13.39;100.00
72157;BME280;60035;52.122;5.406;2023-05-10T08:24:52;101255.47;;;13.46;100.00
72157;BME280;60035;52.122;5.406;2023-05-10T08:27:18;101257.81;;;13.52;100.00
72157;BME280;60035;52.122;5.406;2023-05-10T08:29:45;101256.69;;;13.59;100.00
72157;BME280;60035;52.122;5.406;2023-05-10T08:32:15;101256.56;;;13.64;100.00
72157;BME280;60035;52.122;5.406;2023-05-10T08:34:42;101258.22;;;13.65;100.00
72157;BME280;60035;52.122;5.406;2023-05-10T08:37:08;101268.63;;;13.62;100.00
72157;BME280;60035;52.122;5.406;2023-05-10T08:39:37;101272.19;;;13.58;100.00
72157;BME280;60035;52.122;5.406;2023-05-10T08:42:04;101272.75;;;13.66;100.00
72157;BME280;60035;52.122;5.406;2023-05-10T08:44:32;101275.22;;;13.69;100.00
72157;BME280;60035;52.122;5.406;2023-05-10T08:47:04;101277.47;;;13.78;100.00
72157;BME280;60035;52.122;5.406;2023-05-10T08:49:31;101280.84;;;13.80;100.00
72157;BME280;60035;52.122;5.406;2023-05-10T08:52:02;101288.69;;;13.77;100.00
72157;BME280;60035;52.122;5.406;2023-05-10T08:54:31;101283.47;;;13.79;100.00
72157;BME280;60035;52.122;5.406;2023-05-10T08:56:58;101291.00;;;13.83;100.00
72157;BME280;60035;52.122;5.406;2023-05-10T08:59:24;101289.06;;;13.90;100.00
72157;BME280;60035;52.122;5.406;2023-05-10T09:01:52;101290.53;;;13.97;100.00
72157;BME280;60035;52.122;5.406;2023-05-10T09:04:20;101291.69;;;14.12;100.00
72157;BME280;60035;52.122;5.406;2023-05-10T09:06:47;101285.00;;;14.30;100.00
72157;BME280;60035;52.122;5.406;2023-05-10T09:09:14;101285.63;;;14.37;100.00
72157;BME280;60035;52.122;5.406;2023-05-10T09:11:43;101282.03;;;14.41;100.00
72157;BME280;60035;52.122;5.406;2023-05-10T09:14:09;101288.38;;;14.55;100.00
72157;BME280;60035;52.122;5.406;2023-05-10T09:16:39;101288.91;;;14.63;100.00
72157;BME280;60035;52.122;5.406;2023-05-10T09:19:06;101292.75;;;14.75;100.00
72157;BME280;60035;52.122;5.406;2023-05-10T09:21:35;101287.84;;;14.91;100.00
72157;BME280;60035;52.122;5.406;2023-05-10T09:24:04;101297.66;;;15.03;100.00
72157;BME280;60035;52.122;5.406;2023-05-10T09:26:31;101301.94;;;15.25;100.00
72157;BME280;60035;52.122;5.406;2023-05-10T09:28:59;101293.16;;;15.49;100.00
72157;BME280;60035;52.122;5.406;2023-05-10T09:31:46;101298.69;;;15.61;100.00
72157;BME280;60035;52.122;5.406;2023-05-10T09:34:19;101299.00;;;15.74;100.00
72157;BME280;60035;52.122;5.406;2023-05-10T09:36:51;101302.47;;;15.93;100.00
72157;BME280;60035;52.122;5.406;2023-05-10T09:39:18;101300.28;;;16.03;100.00
72157;BME280;60035;52.122;5.406;2023-05-10T09:41:44;101307.50;;;16.15;100.00
72157;BME280;60035;52.122;5.406;2023-05-10T09:44:11;101306.38;;;16.21;100.00
72157;BME280;60035;52.122;5.406;2023-05-10T09:46:37;101311.31;;;16.26;100.00
72157;BME280;60035;52.122;5.406;2023-05-10T09:49:05;101317.84;;;16.35;100.00
72157;BME280;60035;52.122;5.406;2023-05-10T09:51:31;101318.81;;;16.32;100.00
72157;BME280;60035;52.122;5.406;2023-05-10T09:54:12;101323.34;;;16.27;100.00
72157;BME280;60035;52.122;5.406;2023-05-10T09:56:40;101325.59;;;16.15;100.00
72157;BME280;60035;52.122;5.406;2023-05-10T09:59:11;101327.41;;;16.13;100.00
72157;BME280;60035;52.122;5.406;2023-05-10T10:01:38;101334.94;;;15.99;100.00
72157;BME280;60035;52.122;5.406;2023-05-10T10:04:08;101332.81;;;15.88;100.00
72157;BME280;60035;52.122;5.406;2023-05-10T10:06:39;101330.47;;;15.84;100.00
72157;BME280;60035;52.122;5.406;2023-05-10T10:09:06;101332.28;;;15.80;100.00
72157;BME280;60035;52.122;5.406;2023-05-10T10:11:35;101330.47;;;15.84;100.00
72157;BME280;60035;52.122;5.406;2023-05-10T10:14:02;101332.75;;;15.90;100.00
72157;BME280;60035;52.122;5.406;2023-05-10T10:16:29;101333.66;;;15.89;100.00
72157;BME280;60035;52.122;5.406;2023-05-10T10:18:56;101330.31;;;15.87;100.00
72157;BME280;60035;52.122;5.406;2023-05-10T10:21:24;101340.66;;;16.06;100.00
72157;BME280;60035;52.122;5.406;2023-05-10T10:23:51;101333.63;;;16.09;100.00
72157;BME280;60035;52.122;5.406;2023-05-10T10:26:21;101339.34;;;15.97;100.00
72157;BME280;60035;52.122;5.406;2023-05-10T10:29:00;101339.13;;;16.02;100.00
72157;BME280;60035;52.122;5.406;2023-05-10T10:31:45;101340.66;;;16.06;100.00
72157;BME280;60035;52.122;5.406;2023-05-10T10:34:39;101338.63;;;15.93;100.00
72157;BME280;60035;52.122;5.406;2023-05-10T10:37:06;101347.84;;;15.99;100.00
72157;BME280;60035;52.122;5.406;2023-05-10T10:39:33;101350.56;;;15.96;100.00
72157;BME280;60035;52.122;5.406;2023-05-10T10:42:04;101351.31;;;15.98;100.00
72157;BME280;60035;52.122;5.406;2023-05-10T10:52:37;101350.38;;;16.20;100.00
72157;BME280;60035;52.122;5.406;2023-05-10T10:55:11;101346.88;;;16.02;100.00
72157;BME280;60035;52.122;5.406;2023-05-10T10:57:47;101342.81;;;15.96;100.00
72157;BME280;60035;52.122;5.406;2023-05-10T11:00:27;101344.84;;;16.08;100.00
72157;BME280;60035;52.122;5.406;2023-05-10T11:03:00;101348.44;;;16.25;100.00
72157;BME280;60035;52.122;5.406;2023-05-10T11:07:56;101349.03;;;16.11;100.00
72157;BME280;60035;52.122;5.406;2023-05-10T11:10:24;101344.84;;;16.08;100.00
72157;BME280;60035;52.122;5.406;2023-05-10T11:13:00;101350.72;;;16.12;100.00
72157;BME280;60035;52.122;5.406;2023-05-10T11:15:35;101354.69;;;16.19;100.00
72157;BME280;60035;52.122;5.406;2023-05-10T11:18:27;101353.88;;;16.19;100.00
72157;BME280;60035;52.122;5.406;2023-05-10T11:20:59;101356.03;;;16.28;100.00
72157;BME280;60035;52.122;5.406;2023-05-10T11:23:47;101353.81;;;16.39;100.00
72157;BME280;60035;52.122;5.406;2023-05-10T11:26:15;101349.69;;;16.54;100.00
72157;BME280;60035;52.122;5.406;2023-05-10T11:28:45;101349.16;;;16.65;100.00
72157;BME280;60035;52.122;5.406;2023-05-10T11:31:17;101346.69;;;16.81;100.00
72157;BME280;60035;52.122;5.406;2023-05-10T11:36:16;101345.34;;;17.28;100.00
72157;BME280;60035;52.122;5.406;2023-05-10T11:38:43;101349.19;;;17.54;100.00
72157;BME280;60035;52.122;5.406;2023-05-10T11:41:10;101355.44;;;17.68;98.75
72157;BME280;60035;52.122;5.406;2023-05-10T11:43:39;101352.19;;;17.80;97.43
72157;BME280;60035;52.122;5.406;2023-05-10T11:46:08;101343.25;;;17.86;96.60
72157;BME280;60035;52.122;5.406;2023-05-10T11:48:36;101349.03;;;17.91;97.03
72157;BME280;60035;52.122;5.406;2023-05-10T11:51:02;101352.97;;;17.82;96.27
72157;BME280;60035;52.122;5.406;2023-05-10T11:53:31;101352.69;;;17.71;96.88
72157;BME280;60035;52.122;5.406;2023-05-10T11:56:05;101359.25;;;17.60;96.28
72157;BME280;60035;52.122;5.406;2023-05-10T11:58:33;101352.31;;;17.43;97.57
72157;BME280;60035;52.122;5.406;2023-05-10T12:01:00;101358.88;;;17.33;98.97
72157;BME280;60035;52.122;5.406;2023-05-10T12:03:27;101359.19;;;17.27;98.64
72157;BME280;60035;52.122;5.406;2023-05-10T12:05:55;101362.47;;;17.30;100.00
72157;BME280;60035;52.122;5.406;2023-05-10T12:08:24;101366.50;;;17.36;99.39
72157;BME280;60035;52.122;5.406;2023-05-10T12:10:51;101369.63;;;17.43;98.95
72157;BME280;60035;52.122;5.406;2023-05-10T12:13:19;101364.50;;;17.59;98.52
72157;BME280;60035;52.122;5.406;2023-05-10T12:15:47;101364.38;;;17.78;98.12
72157;BME280;60035;52.122;5.406;2023-05-10T12:18:14;101362.91;;;17.90;99.13
72157;BME280;60035;52.122;5.406;2023-05-10T12:20:41;101358.13;;;18.00;96.83
72157;BME280;60035;52.122;5.406;2023-05-10T12:23:09;101366.50;;;18.05;96.67
72157;BME280;60035;52.122;5.406;2023-05-10T12:25:37;101365.84;;;18.17;94.46
72157;BME280;60035;52.122;5.406;2023-05-10T12:28:08;101364.94;;;18.18;94.81
72157;BME280;60035;52.122;5.406;2023-05-10T12:30:36;101358.16;;;18.31;95.86
72157;BME280;60035;52.122;5.406;2023-05-10T12:33:13;101367.78;;;18.45;92.69
72157;BME280;60035;52.122;5.406;2023-05-10T12:35:46;101360.34;;;18.55;90.87
72157;BME280;60035;52.122;5.406;2023-05-10T12:38:33;101351.72;;;18.71;90.41
72157;BME280;60035;52.122;5.406;2023-05-10T12:41:09;101354.16;;;18.90;90.33
72157;BME280;60035;52.122;5.406;2023-05-10T12:43:36;101349.75;;;19.06;89.19
72157;BME280;60035;52.122;5.406;2023-05-10T12:46:07;101355.28;;;19.30;88.34
72157;BME280;60035;52.122;5.406;2023-05-10T12:48:35;101353.34;;;19.34;91.88
72157;BME280;60035;52.122;5.406;2023-05-10T12:51:03;101358.88;;;19.58;91.52
72157;BME280;60035;52.122;5.406;2023-05-10T12:53:30;101359.22;;;19.52;91.59
72157;BME280;60035;52.122;5.406;2023-05-10T12:55:56;101360.78;;;19.40;87.35
72157;BME280;60035;52.122;5.406;2023-05-10T12:58:23;101361.19;;;19.18;88.98
72157;BME280;60035;52.122;5.406;2023-05-10T13:01:01;101370.28;;;18.95;88.38
72157;BME280;60035;52.122;5.406;2023-05-10T13:03:27;101371.03;;;18.81;88.95
72157;BME280;60035;52.122;5.406;2023-05-10T13:05:54;101374.97;;;18.72;89.28
72157;BME280;60035;52.122;5.406;2023-05-10T13:08:20;101368.88;;;18.57;89.38
72157;BME280;60035;52.122;5.406;2023-05-10T13:10:47;101383.69;;;18.39;89.50
72157;BME280;60035;52.122;5.406;2023-05-10T13:13:14;101385.47;;;18.05;90.56